createdAt,value
2023-04-03T00:00:00.910Z,4.59
2023-04-03T00:02:49.930Z,4.48
2023-04-03T00:05:38.923Z,4.48
2023-04-03T00:08:27.918Z,4.43
2023-04-03T00:11:17.288Z,4.56
2023-04-03T00:14:07.653Z,4.34
2023-04-03T00:16:56.576Z,4.40
2023-04-03T00:19:45.868Z,4.38
2023-04-03T00:22:34.824Z,4.33
2023-04-03T00:25:24.466Z,4.38
2023-04-03T00:28:13.693Z,4.45
2023-04-03T00:31:04.309Z,4.36
2023-04-03T00:33:53.190Z,4.38
2023-04-03T00:36:42.308Z,4.38
2023-04-03T00:39:31.396Z,4.45
2023-04-03T00:42:20.297Z,4.41
2023-04-03T00:45:35.882Z,4.49
2023-04-03T00:48:33.269Z,4.40
2023-04-03T00:51:27.148Z,4.52
2023-04-03T00:54:16.505Z,4.55
2023-04-03T00:57:09.083Z,4.55
2023-04-03T01:00:07.154Z,4.47
2023-04-03T01:02:56.109Z,4.46
2023-04-03T01:05:46.655Z,4.46
2023-04-03T01:08:36.466Z,4.36
2023-04-03T01:11:25.832Z,4.38
2023-04-03T01:14:15.073Z,4.26
2023-04-03T01:17:03.967Z,4.25
2023-04-03T01:20:17.035Z,4.13
2023-04-03T01:23:27.425Z,4.11
2023-04-03T01:26:16.854Z,4.06
2023-04-03T01:29:06.453Z,4.13
2023-04-03T01:31:59.001Z,4.16
2023-04-03T01:34:48.055Z,4.02
2023-04-03T01:37:37.146Z,4.12
2023-04-03T01:40:26.128Z,4.12
2023-04-03T01:43:15.373Z,4.25
2023-04-03T01:46:04.498Z,4.08
2023-04-03T01:48:55.017Z,4.15
2023-04-03T01:51:43.964Z,4.14
2023-04-03T01:54:32.814Z,4.11
2023-04-03T01:57:21.716Z,4.06
2023-04-03T02:00:13.008Z,3.96
2023-04-03T02:03:01.871Z,4.12
2023-04-03T02:05:52.641Z,4.04
2023-04-03T02:08:42.699Z,4.05
2023-04-03T02:11:31.764Z,4.05
2023-04-03T02:14:22.840Z,3.91
2023-04-03T02:17:11.920Z,3.86
2023-04-03T02:20:00.802Z,4.06
2023-04-03T02:22:51.246Z,4.00
2023-04-03T02:25:40.560Z,4.02
2023-04-03T02:28:29.385Z,4.09
2023-04-03T02:31:20.415Z,4.17
2023-04-03T02:34:09.990Z,4.15
2023-04-03T02:36:59.659Z,4.04
2023-04-03T02:39:50.276Z,3.96
2023-04-03T02:42:39.364Z,3.93
2023-04-03T02:45:28.659Z,3.95
2023-04-03T02:48:17.814Z,4.10
2023-04-03T02:51:07.446Z,4.04
2023-04-03T02:53:56.518Z,4.07
2023-04-03T02:56:51.081Z,3.94
2023-04-03T02:59:41.494Z,3.87
2023-04-03T03:02:31.479Z,3.90
2023-04-03T03:05:20.760Z,3.78
2023-04-03T03:08:09.734Z,3.88
2023-04-03T03:10:58.779Z,3.85
2023-04-03T03:13:49.384Z,3.76
2023-04-03T03:16:38.346Z,3.78
2023-04-03T03:19:27.196Z,3.81
2023-04-03T03:22:16.111Z,3.76
2023-04-03T03:25:09.106Z,3.78
2023-04-03T03:27:59.247Z,3.77
2023-04-03T03:30:49.774Z,3.76
2023-04-03T03:33:40.081Z,3.75
2023-04-03T03:36:28.936Z,3.76
2023-04-03T03:39:17.767Z,3.85
2023-04-03T03:42:07.951Z,3.83
2023-04-03T03:44:56.929Z,3.88
2023-04-03T03:47:47.376Z,3.85
2023-04-03T03:50:36.778Z,3.82
2023-04-03T03:53:25.724Z,3.65
2023-04-03T03:56:18.434Z,3.71
2023-04-03T03:59:09.033Z,3.79
2023-04-03T04:01:58.118Z,3.60
2023-04-03T04:04:48.498Z,3.56
2023-04-03T04:07:37.695Z,3.63
2023-04-03T04:10:26.929Z,3.56
2023-04-03T04:13:16.468Z,3.65
2023-04-03T04:16:06.226Z,3.53
2023-04-03T04:18:56.179Z,3.63
2023-04-03T04:21:47.711Z,3.66
2023-04-03T04:24:38.554Z,3.63
2023-04-03T04:27:29.038Z,3.49
2023-04-03T04:30:18.792Z,3.60
2023-04-03T04:33:11.062Z,3.50
2023-04-03T04:36:01.036Z,3.41
2023-04-03T04:38:53.720Z,3.51
2023-04-03T04:41:44.501Z,3.51
2023-04-03T04:44:33.673Z,3.51
2023-04-03T04:47:22.857Z,3.53
2023-04-03T04:50:13.917Z,3.55
2023-04-03T04:53:03.085Z,3.59
2023-04-03T04:55:53.904Z,3.50
2023-04-03T04:58:42.870Z,3.54
2023-04-03T05:01:31.903Z,3.59
2023-04-03T05:04:29.648Z,3.48
2023-04-03T05:07:27.009Z,3.50
2023-04-03T05:10:16.366Z,3.55
2023-04-03T05:13:06.887Z,3.55
2023-04-03T05:15:56.009Z,3.45
2023-04-03T05:18:45.453Z,3.57
2023-04-03T05:21:40.179Z,3.55
2023-04-03T05:24:34.120Z,3.58
2023-04-03T05:27:24.966Z,3.53
2023-04-03T05:30:19.136Z,3.49
2023-04-03T05:33:09.875Z,3.67
2023-04-03T05:36:06.903Z,3.67
2023-04-03T05:38:59.962Z,3.60
2023-04-03T05:41:49.078Z,3.77
2023-04-03T05:44:37.950Z,3.81
2023-04-03T05:47:28.443Z,3.89
2023-04-03T05:50:17.977Z,3.93
2023-04-03T05:53:07.617Z,3.92
2023-04-03T05:55:56.684Z,4.01
2023-04-03T05:58:47.230Z,4.02
2023-04-03T06:01:36.514Z,4.14
2023-04-03T06:04:27.178Z,4.09
2023-04-03T06:07:20.503Z,4.11
2023-04-03T06:10:12.952Z,4.31
2023-04-03T06:13:02.877Z,4.22
2023-04-03T06:15:51.846Z,4.34
2023-04-03T06:18:40.802Z,4.27
2023-04-03T06:21:31.208Z,4.34
2023-04-03T06:24:22.735Z,4.43
2023-04-03T06:27:13.318Z,4.57
2023-04-03T06:30:02.409Z,4.45
2023-04-03T06:32:51.423Z,4.50
2023-04-03T06:35:40.436Z,4.67
2023-04-03T06:41:19.934Z,4.81
2023-04-03T06:44:11.918Z,4.77
2023-04-03T06:47:00.863Z,4.82
2023-04-03T06:49:49.768Z,4.94
2023-04-03T06:52:39.237Z,4.99
2023-04-03T06:55:29.558Z,4.70
2023-04-03T06:58:21.759Z,4.63
2023-04-03T07:01:13.122Z,4.87
2023-04-03T07:04:02.168Z,5.09
2023-04-03T07:06:51.548Z,5.24
2023-04-03T07:09:40.457Z,4.99
2023-04-03T07:12:30.760Z,5.14
2023-04-03T07:15:20.464Z,5.25
2023-04-03T07:18:09.626Z,5.20
2023-04-03T07:20:58.738Z,5.09
2023-04-03T07:26:42.126Z,5.07
2023-04-03T07:29:32.474Z,4.95
2023-04-03T07:32:21.521Z,5.07
2023-04-03T07:35:11.004Z,5.16
2023-04-03T07:37:59.874Z,5.09
2023-04-03T07:40:50.646Z,5.18
2023-04-03T07:43:39.565Z,5.27
2023-04-03T07:46:30.077Z,5.09
2023-04-03T07:49:20.047Z,5.04
2023-04-03T07:52:10.783Z,5.37
2023-04-03T07:54:59.641Z,5.16
2023-04-03T07:57:48.501Z,5.26
2023-04-03T08:00:37.354Z,5.12
2023-04-03T08:03:27.847Z,5.54
2023-04-03T08:06:20.038Z,5.52
2023-04-03T08:09:12.673Z,5.81
2023-04-03T08:12:02.071Z,5.69
2023-04-03T08:14:51.111Z,5.61
2023-04-03T08:17:40.329Z,5.69
2023-04-03T08:20:31.302Z,5.66
2023-04-03T08:23:20.988Z,5.84
2023-04-03T08:26:12.662Z,5.94
2023-04-03T08:29:01.930Z,5.92
2023-04-03T08:31:51.798Z,6.08
2023-04-03T08:34:40.798Z,6.20
2023-04-03T08:37:31.266Z,6.24
2023-04-03T08:40:20.429Z,6.11
2023-04-03T08:43:38.471Z,6.58
2023-04-03T08:46:43.415Z,7.09
2023-04-03T08:49:37.806Z,7.20
2023-04-03T08:52:38.341Z,6.98
2023-04-03T08:55:33.771Z,6.72
2023-04-03T08:58:26.696Z,6.56
2023-04-03T09:01:23.351Z,6.50
2023-04-03T09:04:15.901Z,6.43
2023-04-03T09:07:21.061Z,6.09
2023-04-03T09:10:15.263Z,5.70
2023-04-03T09:13:13.286Z,5.72
2023-04-03T09:16:08.415Z,5.84
2023-04-03T09:19:15.773Z,5.80
2023-04-03T09:22:19.458Z,6.07
2023-04-03T09:25:17.801Z,6.52
2023-04-03T09:28:10.741Z,6.86
2023-04-03T09:31:02.580Z,6.29
2023-04-03T09:33:57.526Z,6.09
2023-04-03T09:36:49.889Z,6.10
2023-04-03T09:39:54.509Z,5.97
2023-04-03T09:42:48.924Z,6.12
2023-04-03T09:45:41.621Z,5.89
2023-04-03T09:48:30.512Z,5.74
2023-04-03T09:51:19.360Z,5.64
2023-04-03T09:54:34.398Z,5.45
2023-04-03T09:57:23.354Z,5.56
2023-04-03T10:00:26.319Z,6.11
2023-04-03T10:03:32.804Z,6.65
2023-04-03T10:06:26.057Z,7.19
2023-04-03T10:09:23.650Z,7.32
2023-04-03T10:12:15.539Z,7.49
2023-04-03T10:15:05.980Z,7.36
2023-04-03T10:18:14.361Z,7.63
2023-04-03T10:21:27.476Z,6.53
2023-04-03T10:24:26.229Z,6.06
2023-04-03T10:27:23.570Z,6.09
2023-04-03T10:30:31.750Z,6.41
2023-04-03T10:33:41.803Z,7.22
2023-04-03T10:36:45.469Z,6.99
2023-04-03T10:39:45.746Z,6.97
2023-04-03T10:42:48.242Z,7.12
2023-04-03T10:45:54.978Z,7.83
2023-04-03T10:49:03.987Z,7.95
2023-04-03T10:52:06.057Z,7.60
2023-04-03T10:55:09.794Z,7.22
2023-04-03T10:58:01.448Z,7.43
2023-04-03T11:00:55.973Z,8.00
2023-04-03T11:03:53.815Z,7.98
2023-04-03T11:06:50.738Z,7.58
2023-04-03T11:09:46.007Z,8.34
2023-04-03T11:12:47.058Z,9.18
2023-04-03T11:15:37.591Z,9.72
2023-04-03T11:18:37.528Z,9.12
2023-04-03T11:21:35.751Z,8.59
2023-04-03T11:24:29.625Z,7.58
2023-04-03T11:27:24.644Z,6.79
2023-04-03T11:30:24.079Z,7.81
2023-04-03T11:33:35.075Z,8.15
2023-04-03T11:36:33.055Z,8.82
2023-04-03T11:39:29.492Z,8.39
2023-04-03T11:42:28.943Z,8.75
2023-04-03T11:45:40.305Z,9.10
2023-04-03T11:48:51.978Z,8.37
2023-04-03T11:51:45.824Z,7.40
2023-04-03T11:54:52.796Z,8.30
2023-04-03T11:58:04.492Z,7.99
2023-04-03T12:01:12.719Z,8.30
2023-04-03T12:04:11.902Z,9.34
2023-04-03T12:07:21.239Z,8.24
2023-04-03T12:10:31.698Z,8.34
2023-04-03T12:13:21.743Z,8.59
2023-04-03T12:16:24.231Z,9.18
2023-04-03T12:22:31.135Z,10.46
2023-04-03T12:25:51.316Z,9.22
2023-04-03T12:28:43.173Z,9.73
2023-04-03T12:31:48.148Z,10.13
2023-04-03T12:35:16.295Z,9.68
2023-04-03T12:38:41.052Z,10.16
2023-04-03T12:41:40.770Z,9.95
2023-04-03T12:44:50.390Z,11.09
2023-04-03T12:47:41.078Z,11.16
2023-04-03T12:50:33.929Z,10.57
2023-04-03T12:53:28.084Z,9.50
2023-04-03T12:56:27.845Z,8.52
2023-04-03T12:59:21.049Z,7.82
2023-04-03T13:02:25.465Z,7.88
2023-04-03T13:05:20.294Z,7.57
2023-04-03T13:08:16.855Z,8.10
2023-04-03T13:11:13.618Z,9.11
2023-04-03T13:14:06.147Z,9.72
2023-04-03T13:16:57.572Z,9.32
2023-04-03T13:19:48.008Z,8.99
2023-04-03T13:22:44.731Z,10.22
2023-04-03T13:25:38.144Z,11.30
2023-04-03T13:28:29.186Z,11.59
2023-04-03T13:31:29.217Z,12.56
2023-04-03T13:34:22.479Z,10.59
2023-04-03T13:37:25.395Z,9.60
2023-04-03T13:40:15.369Z,8.77
2023-04-03T13:43:19.154Z,8.55
2023-04-03T13:46:28.267Z,9.47
2023-04-03T13:49:23.241Z,10.20
2023-04-03T13:52:29.781Z,9.78
2023-04-03T13:55:27.194Z,9.81
2023-04-03T13:58:26.526Z,10.33
2023-04-03T14:01:23.549Z,8.83
2023-04-03T14:04:19.360Z,8.53
2023-04-03T14:07:08.416Z,8.66
2023-04-03T14:09:57.853Z,8.82
2023-04-03T14:12:47.230Z,9.39
2023-04-03T14:15:36.351Z,9.23
2023-04-03T14:18:26.699Z,8.77
2023-04-03T14:21:19.379Z,8.45
2023-04-03T14:24:08.449Z,8.25
2023-04-03T14:26:57.692Z,8.56
2023-04-03T14:29:47.736Z,8.92
2023-04-03T14:32:36.960Z,8.68
2023-04-03T14:35:28.189Z,8.73
2023-04-03T14:38:27.077Z,8.76
2023-04-03T14:41:20.235Z,9.02
2023-04-03T14:44:09.467Z,8.63
2023-04-03T14:46:58.487Z,8.50
2023-04-03T14:49:47.487Z,8.05
2023-04-03T14:52:41.193Z,7.47
2023-04-03T14:55:32.897Z,7.44
2023-04-03T14:58:23.475Z,7.29
2023-04-03T15:01:15.147Z,7.58
2023-04-03T15:04:07.454Z,7.58
2023-04-03T15:06:56.488Z,7.55
2023-04-03T15:09:46.876Z,8.08
2023-04-03T15:12:35.726Z,7.90
2023-04-03T15:15:26.488Z,7.91
2023-04-03T15:18:22.265Z,7.15
2023-04-03T15:21:11.306Z,6.80
2023-04-03T15:24:02.169Z,6.75
2023-04-03T15:26:52.475Z,6.92
2023-04-03T15:29:43.989Z,7.09
2023-04-03T15:32:34.859Z,7.24
2023-04-03T15:35:24.488Z,7.13
2023-04-03T15:38:13.462Z,6.97
2023-04-03T15:41:02.872Z,6.64
2023-04-03T15:43:53.318Z,6.83
2023-04-03T15:46:42.623Z,6.92
2023-04-03T15:49:32.346Z,6.74
2023-04-03T15:52:21.371Z,6.75
2023-04-03T15:55:11.300Z,6.66
2023-04-03T15:58:01.009Z,6.72
2023-04-03T16:00:51.281Z,6.75
2023-04-03T16:03:46.295Z,6.65
2023-04-03T16:06:35.985Z,6.73
2023-04-03T16:09:25.045Z,6.18
2023-04-03T16:12:13.871Z,6.17
2023-04-03T16:15:02.781Z,5.97
2023-04-03T16:17:54.733Z,5.99
2023-04-03T16:20:44.889Z,5.95
2023-04-03T16:23:33.914Z,5.78
2023-04-03T16:26:22.753Z,5.70
2023-04-03T16:29:11.749Z,5.53
2023-04-03T16:32:01.406Z,5.52
2023-04-03T16:34:51.850Z,5.46
2023-04-03T16:37:41.763Z,5.40
2023-04-03T16:40:31.091Z,5.16
2023-04-03T16:43:19.947Z,5.27
2023-04-03T16:46:08.786Z,5.24
2023-04-03T16:48:57.681Z,5.37
2023-04-03T16:51:47.825Z,5.51
2023-04-03T16:54:36.615Z,5.32
2023-04-03T16:57:26.018Z,5.20
2023-04-03T17:00:16.778Z,5.21
2023-04-03T17:03:06.107Z,5.17
2023-04-03T17:05:54.903Z,4.97
2023-04-03T17:08:45.246Z,4.86
2023-04-03T17:11:49.377Z,4.79
2023-04-03T17:14:38.411Z,4.85
2023-04-03T17:17:28.183Z,4.76
2023-04-03T17:20:17.659Z,4.52
2023-04-03T17:23:07.476Z,4.47
2023-04-03T17:25:58.042Z,4.54
2023-04-03T17:28:46.935Z,4.33
2023-04-03T17:31:36.233Z,4.32
2023-04-03T17:34:25.720Z,3.97
2023-04-03T17:37:14.706Z,4.02
2023-04-03T17:40:03.693Z,3.94
2023-04-03T17:42:53.860Z,3.84
2023-04-03T17:45:42.703Z,3.75
2023-04-03T17:48:32.253Z,3.59
2023-04-03T17:51:25.257Z,3.49
2023-04-03T17:54:14.202Z,3.48
2023-04-03T17:57:04.607Z,3.40
2023-04-03T17:59:55.130Z,3.28
2023-04-03T18:02:44.440Z,3.21
2023-04-03T18:05:33.675Z,3.18
2023-04-03T18:08:23.421Z,3.14
2023-04-03T18:11:13.206Z,3.16
2023-04-03T18:14:04.026Z,3.13
2023-04-03T18:16:54.329Z,3.13
2023-04-03T18:19:43.296Z,3.02
2023-04-03T18:22:32.783Z,3.15
2023-04-03T18:25:21.808Z,3.02
2023-04-03T18:28:11.461Z,2.97
2023-04-03T18:31:02.657Z,2.90
2023-04-03T18:33:54.849Z,2.83
2023-04-03T18:36:43.749Z,2.60
2023-04-03T18:39:32.775Z,2.54
2023-04-03T18:42:26.257Z,2.59
2023-04-03T18:45:22.539Z,2.61
2023-04-03T18:48:11.584Z,2.48
2023-04-03T18:51:02.139Z,2.35
2023-04-03T18:53:51.020Z,2.35
2023-04-03T18:56:39.990Z,2.32
2023-04-03T18:59:28.889Z,2.31
2023-04-03T19:02:19.174Z,2.29
2023-04-03T19:05:10.814Z,2.23
2023-04-03T19:08:01.111Z,2.28
2023-04-03T19:10:49.988Z,2.34
2023-04-03T19:13:46.841Z,2.37
2023-04-03T19:16:46.812Z,2.49
2023-04-03T19:19:35.726Z,2.61
2023-04-03T19:22:24.851Z,2.64
2023-04-03T19:25:15.406Z,2.74
2023-04-03T19:28:04.246Z,2.68
2023-04-03T19:30:53.378Z,2.64
2023-04-03T19:33:43.509Z,2.62
2023-04-03T19:36:32.491Z,2.59
2023-04-03T19:39:21.466Z,2.59
2023-04-03T19:42:11.965Z,2.65
2023-04-03T19:45:02.112Z,2.69
2023-04-03T19:47:52.751Z,2.68
2023-04-03T19:50:42.357Z,2.50
2023-04-03T19:53:31.249Z,2.38
2023-04-03T19:56:21.414Z,2.29
2023-04-03T19:59:11.698Z,2.37
2023-04-03T20:02:00.556Z,2.28
2023-04-03T20:04:49.800Z,2.31
2023-04-03T20:07:38.674Z,2.27
2023-04-03T20:10:28.224Z,2.27
2023-04-03T20:13:17.104Z,2.31
2023-04-03T20:16:09.360Z,2.31
2023-04-03T20:18:59.234Z,2.31
2023-04-03T20:21:50.197Z,2.33
2023-04-03T20:24:39.100Z,2.32
2023-04-03T20:27:28.907Z,2.36
2023-04-03T20:30:17.865Z,2.32
2023-04-03T20:33:08.161Z,2.45
2023-04-03T20:35:58.955Z,2.38
2023-04-03T20:38:48.965Z,2.50
2023-04-03T20:41:38.437Z,2.52
2023-04-03T20:44:28.070Z,2.62
2023-04-03T20:47:17.526Z,2.60
2023-04-03T20:50:12.253Z,2.77
2023-04-03T20:53:03.422Z,2.70
2023-04-03T20:56:00.404Z,2.82
2023-04-03T20:58:49.976Z,2.83
2023-04-03T21:01:39.584Z,2.81
2023-04-03T21:04:35.208Z,2.90
2023-04-03T21:08:20.412Z,2.91
2023-04-03T21:12:05.731Z,2.95
2023-04-03T21:15:47.224Z,2.95
2023-04-03T21:19:10.094Z,2.91
2023-04-03T21:22:01.457Z,2.81
2023-04-03T21:24:50.271Z,2.84
2023-04-03T21:27:39.100Z,2.80
2023-04-03T21:30:27.915Z,2.90
2023-04-03T21:33:16.745Z,2.93
2023-04-03T21:36:07.968Z,2.94
2023-04-03T21:38:59.192Z,2.76
2023-04-03T21:41:48.172Z,2.92
2023-04-03T21:44:37.088Z,2.96
2023-04-03T21:47:26.828Z,3.07
2023-04-03T21:50:16.115Z,2.91
2023-04-03T21:53:07.248Z,2.82
2023-04-03T21:55:57.327Z,2.89
2023-04-03T21:58:46.315Z,3.05
2023-04-03T22:01:35.288Z,3.05
2023-04-03T22:04:24.621Z,3.00
2023-04-03T22:07:13.531Z,3.03
2023-04-03T22:10:03.940Z,2.91
2023-04-03T22:12:52.878Z,3.02
2023-04-03T22:15:43.999Z,2.85
2023-04-03T22:18:33.725Z,2.75
2023-04-03T22:21:23.068Z,2.71
2023-04-03T22:24:12.041Z,2.83
2023-04-03T22:27:02.605Z,2.75
2023-04-03T22:29:51.391Z,2.71
2023-04-03T22:32:40.972Z,2.77
2023-04-03T22:35:29.903Z,2.94
2023-04-03T22:38:19.068Z,2.88
2023-04-03T22:41:08.825Z,3.05
2023-04-03T22:43:59.833Z,3.14
2023-04-03T22:46:49.078Z,3.08
2023-04-03T22:49:38.370Z,2.85
2023-04-03T22:52:29.232Z,2.95
2023-04-03T22:55:20.921Z,2.89
2023-04-03T22:58:09.782Z,2.92
2023-04-03T23:01:08.004Z,2.97
2023-04-03T23:03:57.116Z,2.80
2023-04-03T23:06:46.075Z,2.93
2023-04-03T23:09:34.915Z,2.89
2023-04-03T23:12:23.854Z,2.64
2023-04-03T23:15:14.522Z,2.56
2023-04-03T23:18:04.825Z,2.61
2023-04-03T23:20:55.079Z,2.54
2023-04-03T23:23:44.123Z,2.52
2023-04-03T23:26:32.912Z,2.47
2023-04-03T23:29:22.121Z,2.40
2023-04-03T23:32:11.310Z,2.43
2023-04-03T23:35:01.497Z,2.35
2023-04-03T23:37:50.353Z,2.34
2023-04-03T23:40:39.520Z,2.39
2023-04-03T23:43:28.841Z,2.35
2023-04-03T23:46:18.164Z,2.23
2023-04-03T23:49:07.338Z,2.24
2023-04-03T23:51:57.677Z,2.22
2023-04-03T23:54:46.638Z,2.14
2023-04-03T23:57:35.695Z,2.17
